createdAt,value
2018-12-21T00:00:31.483Z,1008.35
2018-12-21T00:01:31.406Z,1008.30
2018-12-21T00:02:31.320Z,1008.29
2018-12-21T00:03:31.244Z,1008.31
2018-12-21T00:04:31.145Z,1008.28
2018-12-21T00:05:31.058Z,1008.26
2018-12-21T00:06:30.981Z,1008.27
2018-12-21T00:07:30.896Z,1008.25
2018-12-21T00:08:30.807Z,1008.24
2018-12-21T00:09:30.720Z,1008.26
2018-12-21T00:10:30.634Z,1008.26
2018-12-21T00:11:30.558Z,1008.26
2018-12-21T00:12:30.471Z,1008.25
2018-12-21T00:13:30.383Z,1008.24
2018-12-21T00:14:30.296Z,1008.25
2018-12-21T00:15:30.208Z,1008.24
2018-12-21T00:16:30.134Z,1008.22
2018-12-21T00:17:34.442Z,1008.23
2018-12-21T00:18:29.958Z,1008.22
2018-12-21T00:19:29.872Z,1008.22
2018-12-21T00:20:29.784Z,1008.19
2018-12-21T00:21:29.698Z,1008.19
2018-12-21T00:22:29.623Z,1008.18
2018-12-21T00:23:29.548Z,1008.17
2018-12-21T00:24:29.447Z,1008.18
2018-12-21T00:25:29.393Z,1008.14
2018-12-21T00:26:29.273Z,1008.17
2018-12-21T00:27:29.197Z,1008.14
2018-12-21T00:28:29.110Z,1008.12
2018-12-21T00:29:29.023Z,1008.08
2018-12-21T00:30:28.949Z,1008.11
2018-12-21T00:31:28.852Z,1008.10
2018-12-21T00:32:28.763Z,1008.07
2018-12-21T00:33:28.685Z,1008.06
2018-12-21T00:34:28.598Z,1007.99
2018-12-21T00:35:28.511Z,1008.01
2018-12-21T00:36:28.425Z,1008.02
2018-12-21T00:37:28.337Z,1008.03
2018-12-21T00:38:28.249Z,1008.03
2018-12-21T00:39:28.174Z,1008.01
2018-12-21T00:40:28.088Z,1008.05
2018-12-21T00:41:27.999Z,1008.00
2018-12-21T00:42:27.913Z,1008.00
2018-12-21T00:43:27.824Z,1008.00
2018-12-21T00:44:27.737Z,1007.98
2018-12-21T00:45:27.661Z,1008.02
2018-12-21T00:46:27.578Z,1008.01
2018-12-21T00:47:27.500Z,1008.00
2018-12-21T00:48:27.399Z,1008.03
2018-12-21T00:49:27.312Z,1008.02
2018-12-21T00:50:27.230Z,1008.00
2018-12-21T00:51:30.347Z,1008.04
2018-12-21T00:52:27.061Z,1008.04
2018-12-21T00:53:26.976Z,1008.06
2018-12-21T00:54:26.887Z,1008.03
2018-12-21T00:55:26.803Z,1008.07
2018-12-21T00:56:26.713Z,1008.06
2018-12-21T00:57:26.637Z,1008.04
2018-12-21T00:58:26.551Z,1008.03
2018-12-21T00:59:26.463Z,1008.03
2018-12-21T01:00:26.377Z,1008.07
2018-12-21T01:01:26.288Z,1008.07
2018-12-21T01:02:26.201Z,1008.08
2018-12-21T01:03:26.115Z,1008.08
2018-12-21T01:04:26.038Z,1008.08
2018-12-21T01:05:25.952Z,1008.10
2018-12-21T01:06:25.866Z,1008.11
2018-12-21T01:07:25.777Z,1008.10
2018-12-21T01:08:25.688Z,1008.12
2018-12-21T01:09:25.604Z,1008.10
2018-12-21T01:10:25.527Z,1008.13
2018-12-21T01:11:25.441Z,1008.13
2018-12-21T01:12:25.352Z,1008.13
2018-12-21T01:13:25.265Z,1008.10
2018-12-21T01:14:25.178Z,1008.16
2018-12-21T01:15:25.091Z,1008.18
2018-12-21T01:16:25.015Z,1008.16
2018-12-21T01:17:24.928Z,1008.14
2018-12-21T01:18:24.841Z,1008.19
2018-12-21T01:19:24.769Z,1008.20
2018-12-21T01:20:24.665Z,1008.23
2018-12-21T01:21:24.577Z,1008.23
2018-12-21T01:22:24.491Z,1008.21
2018-12-21T01:23:24.415Z,1008.20
2018-12-21T01:24:24.329Z,1008.21
2018-12-21T01:25:24.240Z,1008.22
2018-12-21T01:26:24.195Z,1008.21
2018-12-21T01:27:24.084Z,1008.19
2018-12-21T01:28:23.979Z,1008.17
2018-12-21T01:29:23.907Z,1008.13
2018-12-21T01:30:23.815Z,1008.12
2018-12-21T01:31:23.728Z,1008.13
2018-12-21T01:32:23.643Z,1008.10
2018-12-21T01:33:23.556Z,1008.10
2018-12-21T01:34:23.479Z,1008.12
2018-12-21T01:35:23.391Z,1008.06
2018-12-21T01:36:23.309Z,1008.07
2018-12-21T01:37:23.218Z,1008.06
2018-12-21T01:38:23.130Z,1008.08
2018-12-21T01:39:23.042Z,1008.08
2018-12-21T01:40:22.956Z,1008.06
2018-12-21T01:41:22.880Z,1008.03
2018-12-21T01:42:22.793Z,1008.03
2018-12-21T01:43:22.710Z,1008.03
2018-12-21T01:44:22.617Z,1008.01
2018-12-21T01:45:22.530Z,1007.99
2018-12-21T01:46:22.446Z,1007.97
2018-12-21T01:47:22.381Z,1007.97
2018-12-21T01:48:22.281Z,1007.97
2018-12-21T01:49:22.194Z,1007.96
2018-12-21T01:50:22.111Z,1007.97
2018-12-21T01:51:22.019Z,1007.97
2018-12-21T01:52:21.943Z,1007.98
2018-12-21T01:53:21.861Z,1007.99
2018-12-21T01:54:21.782Z,1007.95
2018-12-21T01:55:21.683Z,1007.96
2018-12-21T01:56:21.594Z,1007.94
2018-12-21T01:57:21.518Z,1007.94
2018-12-21T01:58:21.433Z,1007.96
2018-12-21T01:59:21.359Z,1007.93
2018-12-21T02:00:21.260Z,1007.92
2018-12-21T02:01:21.186Z,1007.93
2018-12-21T02:02:21.083Z,1007.90
2018-12-21T02:03:21.012Z,1007.88
2018-12-21T02:04:20.920Z,1007.84
2018-12-21T02:05:20.910Z,1007.89
2018-12-21T02:06:20.846Z,1007.85
2018-12-21T02:07:20.659Z,1007.82
2018-12-21T02:08:20.573Z,1007.81
2018-12-21T02:09:20.497Z,1007.81
2018-12-21T02:10:20.410Z,1007.82
2018-12-21T02:11:20.322Z,1007.82
2018-12-21T02:12:20.234Z,1007.81
2018-12-21T02:13:20.150Z,1007.81
2018-12-21T02:14:20.072Z,1007.81
2018-12-21T02:15:19.985Z,1007.80
2018-12-21T02:16:19.909Z,1007.83
2018-12-21T02:17:19.811Z,1007.77
2018-12-21T02:18:19.723Z,1007.79
2018-12-21T02:19:19.648Z,1007.79
2018-12-21T02:20:19.560Z,1007.79
2018-12-21T02:21:19.473Z,1007.79
2018-12-21T02:22:19.385Z,1007.80
2018-12-21T02:23:19.317Z,1007.77
2018-12-21T02:24:19.223Z,1007.77
2018-12-21T02:25:19.135Z,1007.78
2018-12-21T02:26:19.049Z,1007.76
2018-12-21T02:27:18.961Z,1007.73
2018-12-21T02:28:18.873Z,1007.70
2018-12-21T02:29:18.811Z,1007.74
2018-12-21T02:30:18.713Z,1007.71
2018-12-21T02:31:18.625Z,1007.73
2018-12-21T02:32:18.538Z,1007.73
2018-12-21T02:33:18.449Z,1007.71
2018-12-21T02:34:18.374Z,1007.73
2018-12-21T02:35:18.287Z,1007.71
2018-12-21T02:36:18.201Z,1007.77
2018-12-21T02:37:18.115Z,1007.73
2018-12-21T02:38:18.025Z,1007.73
2018-12-21T02:39:17.951Z,1007.71
2018-12-21T02:40:17.863Z,1007.70
2018-12-21T02:41:17.775Z,1007.72
2018-12-21T02:42:17.828Z,1007.69
2018-12-21T02:43:17.601Z,1007.74
2018-12-21T02:44:17.528Z,1007.68
2018-12-21T02:45:17.440Z,1007.72
2018-12-21T02:46:17.365Z,1007.72
2018-12-21T02:47:17.265Z,1007.73
2018-12-21T02:48:17.176Z,1007.72
2018-12-21T02:49:17.104Z,1007.73
2018-12-21T02:50:17.013Z,1007.72
2018-12-21T02:51:16.926Z,1007.71
2018-12-21T02:52:16.845Z,1007.71
2018-12-21T02:53:16.751Z,1007.70
2018-12-21T02:54:16.679Z,1007.73
2018-12-21T02:55:16.590Z,1007.76
2018-12-21T02:56:16.511Z,1007.69
2018-12-21T02:57:16.416Z,1007.71
2018-12-21T02:58:16.331Z,1007.68
2018-12-21T02:59:16.252Z,1007.67
2018-12-21T03:00:16.167Z,1007.69
2018-12-21T03:01:16.196Z,1007.64
2018-12-21T03:02:15.996Z,1007.62
2018-12-21T03:03:15.904Z,1007.61
2018-12-21T03:04:15.828Z,1007.68
2018-12-21T03:05:15.742Z,1007.61
2018-12-21T03:06:15.653Z,1007.64
2018-12-21T03:07:15.565Z,1007.62
2018-12-21T03:08:15.482Z,1007.60
2018-12-21T03:09:15.404Z,1007.58
2018-12-21T03:10:15.316Z,1007.62
2018-12-21T03:11:15.228Z,1007.54
2018-12-21T03:12:15.141Z,1007.59
2018-12-21T03:13:15.055Z,1007.51
2018-12-21T03:14:14.978Z,1007.52
2018-12-21T03:15:14.895Z,1007.55
2018-12-21T03:16:14.806Z,1007.50
2018-12-21T03:17:14.716Z,1007.55
2018-12-21T03:18:14.629Z,1007.51
2018-12-21T03:19:14.554Z,1007.52
2018-12-21T03:20:14.467Z,1007.56
2018-12-21T03:21:14.378Z,1007.58
2018-12-21T03:22:14.951Z,1007.51
2018-12-21T03:23:14.205Z,1007.51
2018-12-21T03:24:14.130Z,1007.51
2018-12-21T03:25:14.043Z,1007.52
2018-12-21T03:26:13.954Z,1007.50
2018-12-21T03:27:13.868Z,1007.53
2018-12-21T03:28:13.793Z,1007.51
2018-12-21T03:29:13.705Z,1007.49
2018-12-21T03:30:13.620Z,1007.47
2018-12-21T03:31:13.532Z,1007.47
2018-12-21T03:32:13.446Z,1007.47
2018-12-21T03:33:13.357Z,1007.45
2018-12-21T03:34:13.271Z,1007.46
2018-12-21T03:35:13.207Z,1007.47
2018-12-21T03:36:13.109Z,1007.41
2018-12-21T03:37:13.020Z,1007.42
2018-12-21T03:38:12.931Z,1007.40
2018-12-21T03:39:12.846Z,1007.36
2018-12-21T03:40:12.769Z,1007.37
2018-12-21T03:41:12.685Z,1007.34
2018-12-21T03:42:12.596Z,1007.38
2018-12-21T03:43:12.506Z,1007.34
2018-12-21T03:44:12.420Z,1007.33
2018-12-21T03:45:12.333Z,1007.37
2018-12-21T03:46:12.258Z,1007.33
2018-12-21T03:47:12.172Z,1007.34
2018-12-21T03:48:12.081Z,1007.32
2018-12-21T03:49:11.996Z,1007.32
2018-12-21T03:50:11.907Z,1007.29
2018-12-21T03:51:11.832Z,1007.27
2018-12-21T03:52:11.746Z,1007.24
2018-12-21T03:53:11.672Z,1007.26
2018-12-21T03:54:11.572Z,1007.19
2018-12-21T03:55:11.484Z,1007.22
2018-12-21T03:56:11.402Z,1007.17
2018-12-21T03:57:11.331Z,1007.19
2018-12-21T03:58:11.234Z,1007.18
2018-12-21T03:59:11.147Z,1007.15
2018-12-21T04:00:11.071Z,1007.15
2018-12-21T04:01:10.972Z,1007.14
2018-12-21T04:02:10.885Z,1007.09
2018-12-21T04:03:10.811Z,1007.11
2018-12-21T04:04:10.723Z,1007.16
2018-12-21T04:05:10.637Z,1007.11
2018-12-21T04:06:10.547Z,1007.12
2018-12-21T04:07:10.473Z,1007.10
2018-12-21T04:08:10.384Z,1007.09
2018-12-21T04:09:10.303Z,1007.11
2018-12-21T04:10:10.210Z,1007.10
2018-12-21T04:11:10.126Z,1007.07
2018-12-21T04:12:10.034Z,1007.08
2018-12-21T04:13:09.950Z,1007.04
2018-12-21T04:14:09.873Z,1007.06
2018-12-21T04:15:09.785Z,1007.01
2018-12-21T04:16:09.699Z,1006.99
2018-12-21T04:17:09.610Z,1006.98
2018-12-21T04:18:09.524Z,1006.99
2018-12-21T04:19:09.452Z,1006.98
2018-12-21T04:20:09.369Z,1006.98
2018-12-21T04:21:09.276Z,1007.01
2018-12-21T04:22:09.187Z,1007.00
2018-12-21T04:23:09.104Z,1007.00
2018-12-21T04:24:09.016Z,1006.99
2018-12-21T04:25:08.938Z,1007.00
2018-12-21T04:26:08.851Z,1007.01
2018-12-21T04:27:08.783Z,1007.00
2018-12-21T04:28:08.675Z,1007.00
2018-12-21T04:29:08.587Z,1007.01
2018-12-21T04:30:08.513Z,1007.00
2018-12-21T04:31:08.428Z,1006.99
2018-12-21T04:32:08.341Z,1006.97
2018-12-21T04:33:08.252Z,1007.00
2018-12-21T04:34:08.221Z,1007.00
2018-12-21T04:35:08.087Z,1007.01
2018-12-21T04:36:08.001Z,1006.97
2018-12-21T04:37:07.914Z,1006.95
2018-12-21T04:38:07.827Z,1006.94
2018-12-21T04:39:07.739Z,1007.01
2018-12-21T04:40:07.656Z,1006.96
2018-12-21T04:41:07.577Z,1006.97
2018-12-21T04:42:07.487Z,1006.95
2018-12-21T04:43:07.403Z,1006.98
2018-12-21T04:44:07.312Z,1006.97
2018-12-21T04:45:07.228Z,1006.96
2018-12-21T04:46:07.139Z,1006.97
2018-12-21T04:47:07.063Z,1006.92
2018-12-21T04:48:06.977Z,1006.93
2018-12-21T04:49:06.896Z,1006.91
2018-12-21T04:50:06.808Z,1006.90
2018-12-21T04:51:06.714Z,1006.95
2018-12-21T04:52:06.640Z,1006.87
2018-12-21T04:53:06.552Z,1006.87
2018-12-21T04:54:06.465Z,1006.88
2018-12-21T04:55:06.378Z,1006.88
2018-12-21T04:56:06.290Z,1006.85
2018-12-21T04:57:06.219Z,1006.85
2018-12-21T04:58:06.127Z,1006.83
2018-12-21T04:59:06.040Z,1006.84
2018-12-21T05:00:05.952Z,1006.82
2018-12-21T05:01:05.865Z,1006.77
2018-12-21T05:02:05.784Z,1006.80
2018-12-21T05:03:05.703Z,1006.79
2018-12-21T05:04:05.617Z,1006.76
2018-12-21T05:05:05.531Z,1006.76
2018-12-21T05:06:05.453Z,1006.75
2018-12-21T05:07:12.369Z,1006.77
2018-12-21T05:08:05.268Z,1006.75
2018-12-21T05:09:05.324Z,1006.77
2018-12-21T05:10:05.103Z,1006.74
2018-12-21T05:11:05.026Z,1006.75
2018-12-21T05:12:04.931Z,1006.75
2018-12-21T05:13:04.853Z,1006.75
2018-12-21T05:14:04.766Z,1006.75
2018-12-21T05:15:04.684Z,1006.75
2018-12-21T05:16:04.591Z,1006.70
2018-12-21T05:17:04.504Z,1006.73
2018-12-21T05:18:04.417Z,1006.67
2018-12-21T05:19:04.342Z,1006.66
2018-12-21T05:20:04.255Z,1006.65
2018-12-21T05:21:04.294Z,1006.67
2018-12-21T05:22:04.080Z,1006.69
2018-12-21T05:23:03.992Z,1006.69
2018-12-21T05:24:03.906Z,1006.70
2018-12-21T05:25:03.831Z,1006.69
2018-12-21T05:26:03.742Z,1006.71
2018-12-21T05:27:03.656Z,1006.67
2018-12-21T05:28:03.569Z,1006.68
2018-12-21T05:29:03.481Z,1006.65
2018-12-21T05:30:03.425Z,1006.74
2018-12-21T05:31:03.318Z,1006.67
2018-12-21T05:32:03.234Z,1006.64
2018-12-21T05:33:03.143Z,1006.66
2018-12-21T05:34:03.058Z,1006.67
2018-12-21T05:35:02.972Z,1006.68
2018-12-21T05:36:02.895Z,1006.64
2018-12-21T05:37:02.807Z,1006.65
2018-12-21T05:38:02.719Z,1006.59
2018-12-21T05:39:02.636Z,1006.58
2018-12-21T05:40:02.794Z,1006.64
2018-12-21T05:41:02.469Z,1006.57
2018-12-21T05:42:02.384Z,1006.60
2018-12-21T05:43:02.294Z,1006.61
2018-12-21T05:44:02.207Z,1006.60
2018-12-21T05:45:02.120Z,1006.60
2018-12-21T05:46:02.044Z,1006.54
2018-12-21T05:47:01.960Z,1006.55
2018-12-21T05:48:01.982Z,1006.53
2018-12-21T05:49:01.784Z,1006.50
2018-12-21T05:50:01.698Z,1006.51
2018-12-21T05:51:01.609Z,1006.51
2018-12-21T05:52:01.533Z,1006.48
2018-12-21T05:53:01.446Z,1006.42
2018-12-21T05:54:01.358Z,1006.40
2018-12-21T05:55:01.270Z,1006.41
2018-12-21T05:56:01.183Z,1006.39
2018-12-21T05:57:01.097Z,1006.38
2018-12-21T05:58:01.020Z,1006.37
2018-12-21T05:59:00.934Z,1006.35
2018-12-21T06:00:00.847Z,1006.33
2018-12-21T06:01:00.853Z,1006.30
2018-12-21T06:02:00.671Z,1006.29
2018-12-21T06:03:00.596Z,1006.23
2018-12-21T06:04:00.510Z,1006.25
2018-12-21T06:05:00.421Z,1006.23
2018-12-21T06:06:00.336Z,1006.18
2018-12-21T06:07:00.248Z,1006.17
2018-12-21T06:08:00.160Z,1006.13
2018-12-21T06:09:00.087Z,1006.16
2018-12-21T06:09:59.996Z,1006.16
2018-12-21T06:10:59.911Z,1006.15
2018-12-21T06:11:59.825Z,1006.11
2018-12-21T06:12:59.736Z,1006.09
2018-12-21T06:14:01.063Z,1006.07
2018-12-21T06:14:59.572Z,1006.10
2018-12-21T06:15:59.491Z,1006.09
2018-12-21T06:16:59.398Z,1006.07
2018-12-21T06:17:59.312Z,1006.03
2018-12-21T06:18:59.223Z,1006.03
2018-12-21T06:19:59.148Z,1006.04
2018-12-21T06:20:59.061Z,1006.02
2018-12-21T06:21:58.975Z,1006.00
2018-12-21T06:22:58.886Z,1005.93
2018-12-21T06:23:58.801Z,1005.91
2018-12-21T06:24:58.712Z,1005.92
2018-12-21T06:25:58.637Z,1005.85
2018-12-21T06:26:58.548Z,1005.82
2018-12-21T06:27:58.461Z,1005.80
2018-12-21T06:28:58.386Z,1005.76
2018-12-21T06:29:58.300Z,1005.76
2018-12-21T06:30:58.213Z,1005.73
2018-12-21T06:31:58.125Z,1005.69
2018-12-21T06:32:58.038Z,1005.68
2018-12-21T06:33:57.949Z,1005.66
2018-12-21T06:34:57.863Z,1005.65
2018-12-21T06:35:57.780Z,1005.63
2018-12-21T06:36:57.700Z,1005.63
2018-12-21T06:37:57.613Z,1005.60
2018-12-21T06:38:57.525Z,1005.58
2018-12-21T06:39:57.438Z,1005.56
2018-12-21T06:40:57.350Z,1005.59
2018-12-21T06:41:57.275Z,1005.53
2018-12-21T06:42:57.188Z,1005.61
2018-12-21T06:43:57.123Z,1005.64
2018-12-21T06:44:57.016Z,1005.62
2018-12-21T06:45:56.939Z,1005.64
2018-12-21T06:46:56.851Z,1005.60
2018-12-21T06:47:56.769Z,1005.57
2018-12-21T06:48:56.676Z,1005.61
2018-12-21T06:49:56.589Z,1005.60
2018-12-21T06:50:56.501Z,1005.61
2018-12-21T06:51:56.414Z,1005.61
2018-12-21T06:52:56.339Z,1005.60
2018-12-21T06:53:56.251Z,1005.58
2018-12-21T06:54:56.165Z,1005.51
2018-12-21T06:55:56.077Z,1005.55
2018-12-21T06:56:55.990Z,1005.55
2018-12-21T06:57:55.915Z,1005.49
2018-12-21T06:58:55.827Z,1005.45
2018-12-21T06:59:55.992Z,1005.43
2018-12-21T07:00:55.652Z,1005.40
2018-12-21T07:01:55.566Z,1005.38
2018-12-21T07:02:55.490Z,1005.40
2018-12-21T07:03:55.402Z,1005.36
2018-12-21T07:04:55.316Z,1005.40
2018-12-21T07:05:55.229Z,1005.36
2018-12-21T07:06:55.141Z,1005.41
2018-12-21T07:07:55.054Z,1005.38
2018-12-21T07:08:55.074Z,1005.34
2018-12-21T07:09:54.891Z,1005.36
2018-12-21T07:10:54.803Z,1005.35
2018-12-21T07:11:54.717Z,1005.33
2018-12-21T07:12:54.633Z,1005.33
2018-12-21T07:13:54.553Z,1005.33
2018-12-21T07:14:54.476Z,1005.35
2018-12-21T07:15:54.381Z,1005.31
2018-12-21T07:16:54.293Z,1005.39
2018-12-21T07:17:54.204Z,1005.32
2018-12-21T07:18:54.143Z,1005.38
2018-12-21T07:19:54.041Z,1005.32
2018-12-21T07:20:53.954Z,1005.26
2018-12-21T07:21:53.872Z,1005.25
2018-12-21T07:22:53.781Z,1005.25
2018-12-21T07:23:53.693Z,1005.22
2018-12-21T07:24:53.619Z,1005.26
2018-12-21T07:25:53.542Z,1005.28
2018-12-21T07:26:53.445Z,1005.24
2018-12-21T07:27:53.355Z,1005.25
2018-12-21T07:28:53.275Z,1005.26
2018-12-21T07:29:53.194Z,1005.26
2018-12-21T07:30:53.105Z,1005.20
2018-12-21T07:31:53.019Z,1005.23
2018-12-21T07:32:52.930Z,1005.17
2018-12-21T07:33:52.843Z,1005.21
2018-12-21T07:34:52.769Z,1005.16
2018-12-21T07:35:52.681Z,1005.12
2018-12-21T07:36:52.595Z,1005.06
2018-12-21T07:37:52.506Z,1005.12
2018-12-21T07:38:52.419Z,1005.07
2018-12-21T07:39:52.333Z,1005.07
2018-12-21T07:40:52.256Z,1005.12
2018-12-21T07:41:52.169Z,1005.11
2018-12-21T07:42:52.081Z,1005.07
2018-12-21T07:43:51.997Z,1005.09
2018-12-21T07:44:51.907Z,1005.06
2018-12-21T07:45:51.831Z,1005.03
2018-12-21T07:46:51.745Z,1005.01
2018-12-21T07:47:51.657Z,1004.96
2018-12-21T07:48:51.571Z,1005.03
2018-12-21T07:49:51.482Z,1005.01
2018-12-21T07:50:51.412Z,1004.98
2018-12-21T07:51:51.320Z,1004.96
2018-12-21T07:52:53.235Z,1004.92
2018-12-21T07:53:51.146Z,1004.99
2018-12-21T07:54:51.057Z,1004.96
2018-12-21T07:55:50.971Z,1004.96
2018-12-21T07:56:50.896Z,1004.90
2018-12-21T07:57:50.807Z,1004.95
2018-12-21T07:58:57.110Z,1004.96
2018-12-21T07:59:50.635Z,1004.92
2018-12-21T08:00:50.558Z,1004.93
2018-12-21T08:01:50.460Z,1004.91
2018-12-21T08:02:50.397Z,1004.88
2018-12-21T08:03:50.296Z,1004.84
2018-12-21T08:04:50.208Z,1004.84
2018-12-21T08:05:50.122Z,1004.83
2018-12-21T08:06:50.034Z,1004.88
2018-12-21T08:07:50.062Z,1004.84
2018-12-21T08:08:49.875Z,1004.86
2018-12-21T08:09:49.796Z,1004.85
2018-12-21T08:10:49.697Z,1004.90
2018-12-21T08:11:49.609Z,1004.90
2018-12-21T08:12:49.534Z,1004.86
2018-12-21T08:13:49.447Z,1004.81
2018-12-21T08:14:49.360Z,1004.80
2018-12-21T08:15:49.273Z,1004.78
2018-12-21T08:16:49.197Z,1004.78
2018-12-21T08:17:49.099Z,1004.75
2018-12-21T08:18:49.022Z,1004.77
2018-12-21T08:19:48.936Z,1004.74
2018-12-21T08:20:48.847Z,1004.69
2018-12-21T08:21:48.759Z,1004.71
2018-12-21T08:22:48.672Z,1004.60
2018-12-21T08:23:48.598Z,1004.62
2018-12-21T08:24:48.511Z,1004.62
2018-12-21T08:25:48.423Z,1004.66
2018-12-21T08:26:48.335Z,1004.61
2018-12-21T08:27:48.252Z,1004.61
2018-12-21T08:28:48.162Z,1004.59
2018-12-21T08:29:48.098Z,1004.56
2018-12-21T08:30:47.999Z,1004.54
2018-12-21T08:31:47.911Z,1004.51
2018-12-21T08:32:47.824Z,1004.48
2018-12-21T08:33:47.737Z,1004.49
2018-12-21T08:34:47.661Z,1004.47
2018-12-21T08:35:47.574Z,1004.45
2018-12-21T08:36:47.488Z,1004.41
2018-12-21T08:37:47.404Z,1004.45
2018-12-21T08:38:47.312Z,1004.39
2018-12-21T08:39:47.236Z,1004.35
2018-12-21T08:40:47.152Z,1004.34
2018-12-21T08:41:47.075Z,1004.30
2018-12-21T08:42:46.979Z,1004.31
2018-12-21T08:43:46.889Z,1004.29
2018-12-21T08:44:46.815Z,1004.30
2018-12-21T08:45:46.726Z,1004.26
2018-12-21T08:46:46.641Z,1004.25
2018-12-21T08:47:46.550Z,1004.25
2018-12-21T08:48:46.463Z,1004.22
2018-12-21T08:49:46.376Z,1004.18
2018-12-21T08:50:46.302Z,1004.19
2018-12-21T08:51:46.214Z,1004.20
2018-12-21T08:52:46.126Z,1004.21
2018-12-21T08:53:52.468Z,1004.16
2018-12-21T08:54:45.952Z,1004.20
2018-12-21T08:55:45.865Z,1004.19
2018-12-21T08:56:45.788Z,1004.19
2018-12-21T08:57:45.701Z,1004.23
2018-12-21T08:58:45.615Z,1004.17
2018-12-21T08:59:45.527Z,1004.17
2018-12-21T09:00:45.440Z,1004.14
2018-12-21T09:01:45.364Z,1004.16
2018-12-21T09:02:45.278Z,1004.16
2018-12-21T09:03:45.190Z,1004.10
2018-12-21T09:04:45.108Z,1004.09
2018-12-21T09:05:45.015Z,1004.11
2018-12-21T09:06:44.939Z,1004.08
2018-12-21T09:07:44.853Z,1004.09
2018-12-21T09:08:44.777Z,1004.09
2018-12-21T09:09:44.793Z,1004.16
2018-12-21T09:10:44.622Z,1004.13
2018-12-21T09:11:44.516Z,1004.11
2018-12-21T09:12:44.428Z,1004.12
2018-12-21T09:13:44.341Z,1004.05
2018-12-21T09:14:44.253Z,1004.12
2018-12-21T09:15:44.178Z,1004.06
2018-12-21T09:16:44.090Z,1004.00
2018-12-21T09:17:44.006Z,1004.04
2018-12-21T09:18:43.917Z,1003.97
2018-12-21T09:19:43.834Z,1003.93
2018-12-21T09:20:43.740Z,1003.96
2018-12-21T09:21:43.666Z,1003.94
2018-12-21T09:22:43.579Z,1003.89
2018-12-21T09:23:43.492Z,1003.91
2018-12-21T09:24:43.404Z,1003.83
2018-12-21T09:25:43.316Z,1003.84
2018-12-21T09:26:43.242Z,1003.87
2018-12-21T09:27:43.155Z,1003.87
2018-12-21T09:28:43.067Z,1003.82
2018-12-21T09:29:42.981Z,1003.83
2018-12-21T09:30:42.898Z,1003.75
2018-12-21T09:31:42.817Z,1003.72
2018-12-21T09:32:42.730Z,1003.71
2018-12-21T09:33:42.642Z,1003.67
2018-12-21T09:34:42.567Z,1003.67
2018-12-21T09:35:42.544Z,1003.65
2018-12-21T09:36:43.073Z,1003.62
2018-12-21T09:37:42.307Z,1003.58
2018-12-21T09:38:42.223Z,1003.58
2018-12-21T09:39:42.132Z,1003.52
2018-12-21T09:40:42.044Z,1003.53
2018-12-21T09:41:41.968Z,1003.53
2018-12-21T09:42:41.881Z,1003.53
2018-12-21T09:43:41.794Z,1003.52
2018-12-21T09:44:41.706Z,1003.52
2018-12-21T09:45:41.631Z,1003.49
2018-12-21T09:46:41.556Z,1003.48
2018-12-21T09:47:41.459Z,1003.46
2018-12-21T09:48:41.368Z,1003.41
2018-12-21T09:49:41.284Z,1003.39
2018-12-21T09:50:41.207Z,1003.41
2018-12-21T09:51:41.118Z,1003.38
2018-12-21T09:52:41.033Z,1003.35
2018-12-21T09:53:40.945Z,1003.36
2018-12-21T09:54:40.869Z,1003.35
2018-12-21T09:55:40.784Z,1003.34
2018-12-21T09:56:40.694Z,1003.29
2018-12-21T09:57:40.607Z,1003.28
2018-12-21T09:58:40.535Z,1003.25
2018-12-21T09:59:40.446Z,1003.27
2018-12-21T10:00:40.357Z,1003.24
2018-12-21T10:01:40.283Z,1003.19
2018-12-21T10:02:40.183Z,1003.16
2018-12-21T10:03:40.108Z,1003.15
2018-12-21T10:04:40.019Z,1003.13
2018-12-21T10:05:39.945Z,1003.11
2018-12-21T10:06:39.849Z,1003.09
2018-12-21T10:07:39.773Z,1003.08
2018-12-21T10:08:39.683Z,1003.05
2018-12-21T10:09:39.595Z,1003.04
2018-12-21T10:10:39.509Z,1003.04
2018-12-21T10:11:39.425Z,1002.99
2018-12-21T10:12:39.348Z,1003.01
2018-12-21T10:13:39.260Z,1002.91
2018-12-21T10:14:39.172Z,1002.90
2018-12-21T10:15:39.088Z,1002.84
2018-12-21T10:16:39.010Z,1002.73
2018-12-21T10:17:38.934Z,1002.76
2018-12-21T10:18:38.835Z,1002.69
2018-12-21T10:19:38.748Z,1002.67
2018-12-21T10:20:38.672Z,1002.67
2018-12-21T10:21:38.585Z,1002.69
2018-12-21T10:22:38.498Z,1002.63
2018-12-21T10:23:38.410Z,1002.66
2018-12-21T10:24:38.342Z,1002.62
2018-12-21T10:25:38.247Z,1002.61
2018-12-21T10:26:38.163Z,1002.57
2018-12-21T10:27:38.178Z,1002.52
2018-12-21T10:28:37.997Z,1002.50
2018-12-21T10:29:37.911Z,1002.51
2018-12-21T10:30:37.825Z,1002.47
2018-12-21T10:31:37.736Z,1002.41
2018-12-21T10:32:37.664Z,1002.40
2018-12-21T10:33:37.573Z,1002.38
2018-12-21T10:34:37.486Z,1002.34
2018-12-21T10:35:37.397Z,1002.34
2018-12-21T10:36:37.431Z,1002.28
2018-12-21T10:37:37.237Z,1002.24
2018-12-21T10:38:37.148Z,1002.27
2018-12-21T10:39:37.063Z,1002.13
2018-12-21T10:40:36.988Z,1002.15
2018-12-21T10:41:36.899Z,1002.11
2018-12-21T10:42:36.812Z,1002.10
2018-12-21T10:43:36.723Z,1002.05
2018-12-21T10:44:36.650Z,1002.03
2018-12-21T10:45:41.528Z,1001.99
2018-12-21T10:46:36.474Z,1001.99
2018-12-21T10:47:36.387Z,1001.91
2018-12-21T10:48:37.497Z,1001.95
2018-12-21T10:49:36.225Z,1001.90
2018-12-21T10:50:36.139Z,1001.85
2018-12-21T10:51:36.050Z,1001.84
2018-12-21T10:52:35.975Z,1001.75
2018-12-21T10:53:35.894Z,1001.78
2018-12-21T10:54:35.802Z,1001.71
2018-12-21T10:55:35.712Z,1001.71
2018-12-21T10:56:35.637Z,1001.70
2018-12-21T10:57:35.554Z,1001.68
2018-12-21T10:58:35.464Z,1001.64
2018-12-21T10:59:43.205Z,1001.63
2018-12-21T11:00:35.302Z,1001.60
2018-12-21T11:01:35.214Z,1001.55
2018-12-21T11:02:35.125Z,1001.54
2018-12-21T11:03:35.044Z,1001.49
2018-12-21T11:04:34.964Z,1001.46
2018-12-21T11:05:34.876Z,1001.44
2018-12-21T11:06:34.790Z,1001.41
2018-12-21T11:07:34.719Z,1001.39
2018-12-21T11:08:34.626Z,1001.32
2018-12-21T11:09:34.544Z,1001.33
2018-12-21T11:10:34.452Z,1001.35
2018-12-21T11:11:34.365Z,1001.27
2018-12-21T11:12:34.290Z,1001.26
2018-12-21T11:13:34.215Z,1001.21
2018-12-21T11:14:34.115Z,1001.21
2018-12-21T11:15:34.027Z,1001.15
2018-12-21T11:16:33.954Z,1001.10
2018-12-21T11:17:33.865Z,1001.11
2018-12-21T11:18:33.777Z,1001.06
2018-12-21T11:19:33.691Z,1001.06
2018-12-21T11:20:33.615Z,1001.00
2018-12-21T11:21:33.527Z,1001.04
2018-12-21T11:22:33.441Z,1001.05
2018-12-21T11:23:33.354Z,1001.01
2018-12-21T11:24:35.557Z,1000.93
2018-12-21T11:25:33.192Z,1000.91
2018-12-21T11:26:33.102Z,1000.84
2018-12-21T11:27:33.029Z,1000.76
2018-12-21T11:28:32.941Z,1000.78
2018-12-21T11:29:32.853Z,1000.72
2018-12-21T11:30:32.766Z,1000.70
2018-12-21T11:31:32.692Z,1000.68
2018-12-21T11:32:32.604Z,1000.65
2018-12-21T11:33:32.518Z,1000.65
2018-12-21T11:34:32.442Z,1000.59
2018-12-21T11:35:32.354Z,1000.56
2018-12-21T11:36:32.267Z,1000.62
2018-12-21T11:37:32.180Z,1000.52
2018-12-21T11:38:32.104Z,1000.51
2018-12-21T11:39:32.019Z,1000.55
2018-12-21T11:40:31.933Z,1000.51
2018-12-21T11:41:31.843Z,1000.43
2018-12-21T11:42:31.768Z,1000.39
2018-12-21T11:43:31.680Z,1000.37
2018-12-21T11:44:31.596Z,1000.36
2018-12-21T11:45:31.506Z,1000.32
2018-12-21T11:46:31.430Z,1000.20
2018-12-21T11:47:31.345Z,1000.18
2018-12-21T11:48:31.256Z,1000.17
2018-12-21T11:49:31.170Z,1000.10
2018-12-21T11:50:31.095Z,1000.14
2018-12-21T11:51:31.019Z,1000.10
2018-12-21T11:52:30.919Z,1000.10
2018-12-21T11:53:30.832Z,1000.07
2018-12-21T11:54:30.757Z,999.94
2018-12-21T11:55:30.669Z,999.91
2018-12-21T11:56:30.581Z,999.89
2018-12-21T11:57:30.494Z,999.87
2018-12-21T11:58:30.421Z,999.84
2018-12-21T11:59:30.331Z,999.81
2018-12-21T12:00:30.245Z,999.85
2018-12-21T12:01:30.158Z,999.75
2018-12-21T12:02:30.083Z,999.72
2018-12-21T12:03:29.995Z,999.69
2018-12-21T12:04:29.908Z,999.71
2018-12-21T12:05:29.821Z,999.68